sensor_id;sensor_type;location;lat;lon;timestamp;P1;durP1;ratioP1;P2;durP2;ratioP2
56541;SDS011;42438;53.174;6.730;2023-05-10T00:00:25;12.38;;;7.97;;
56541;SDS011;42438;53.174;6.730;2023-05-10T00:02:56;10.88;;;7.65;;
56541;SDS011;42438;53.174;6.730;2023-05-10T00:05:27;13.07;;;8.63;;
56541;SDS011;42438;53.174;6.730;2023-05-10T00:07:58;12.82;;;8.85;;
56541;SDS011;42438;53.174;6.730;2023-05-10T00:10:28;13.43;;;8.90;;
56541;SDS011;42438;53.174;6.730;2023-05-10T00:12:59;14.05;;;9.68;;
56541;SDS011;42438;53.174;6.730;2023-05-10T00:15:30;12.30;;;8.25;;
56541;SDS011;42438;53.174;6.730;2023-05-10T00:18:00;9.40;;;6.57;;
56541;SDS011;42438;53.174;6.730;2023-05-10T00:20:31;9.45;;;6.43;;
56541;SDS011;42438;53.174;6.730;2023-05-10T00:23:02;9.50;;;6.03;;
56541;SDS011;42438;53.174;6.730;2023-05-10T00:25:32;10.07;;;6.22;;
56541;SDS011;42438;53.174;6.730;2023-05-10T00:28:03;9.63;;;6.15;;
56541;SDS011;42438;53.174;6.730;2023-05-10T00:30:34;8.65;;;5.93;;
56541;SDS011;42438;53.174;6.730;2023-05-10T00:33:04;11.45;;;6.22;;
56541;SDS011;42438;53.174;6.730;2023-05-10T00:35:35;9.25;;;6.25;;
56541;SDS011;42438;53.174;6.730;2023-05-10T00:38:06;9.35;;;5.85;;
56541;SDS011;42438;53.174;6.730;2023-05-10T00:40:36;10.10;;;6.18;;
56541;SDS011;42438;53.174;6.730;2023-05-10T00:43:07;10.15;;;6.07;;
56541;SDS011;42438;53.174;6.730;2023-05-10T00:45:38;9.25;;;6.70;;
56541;SDS011;42438;53.174;6.730;2023-05-10T00:48:11;10.43;;;6.65;;
56541;SDS011;42438;53.174;6.730;2023-05-10T00:50:42;12.73;;;7.18;;
56541;SDS011;42438;53.174;6.730;2023-05-10T00:53:14;9.85;;;6.03;;
56541;SDS011;42438;53.174;6.730;2023-05-10T00:55:45;10.70;;;6.47;;
56541;SDS011;42438;53.174;6.730;2023-05-10T00:58:16;9.95;;;6.63;;
56541;SDS011;42438;53.174;6.730;2023-05-10T01:00:47;9.25;;;5.78;;
56541;SDS011;42438;53.174;6.730;2023-05-10T01:03:18;10.80;;;6.72;;
56541;SDS011;42438;53.174;6.730;2023-05-10T01:05:49;10.23;;;6.60;;
56541;SDS011;42438;53.174;6.730;2023-05-10T01:08:20;9.20;;;6.40;;
56541;SDS011;42438;53.174;6.730;2023-05-10T01:10:50;10.90;;;6.82;;
56541;SDS011;42438;53.174;6.730;2023-05-10T01:16:09;11.13;;;6.82;;
56541;SDS011;42438;53.174;6.730;2023-05-10T01:18:40;10.75;;;7.18;;
56541;SDS011;42438;53.174;6.730;2023-05-10T01:27:07;10.13;;;6.80;;
56541;SDS011;42438;53.174;6.730;2023-05-10T01:30:15;11.75;;;7.47;;
56541;SDS011;42438;53.174;6.730;2023-05-10T01:35:42;9.27;;;6.18;;
56541;SDS011;42438;53.174;6.730;2023-05-10T01:38:38;10.80;;;6.68;;
56541;SDS011;42438;53.174;6.730;2023-05-10T01:44:29;10.23;;;6.50;;
56541;SDS011;42438;53.174;6.730;2023-05-10T01:47:11;8.63;;;5.82;;
56541;SDS011;42438;53.174;6.730;2023-05-10T01:49:50;10.13;;;6.18;;
56541;SDS011;42438;53.174;6.730;2023-05-10T01:52:33;11.57;;;6.50;;
56541;SDS011;42438;53.174;6.730;2023-05-10T01:55:09;10.40;;;6.28;;
56541;SDS011;42438;53.174;6.730;2023-05-10T01:57:44;11.52;;;6.70;;
56541;SDS011;42438;53.174;6.730;2023-05-10T02:00:18;10.40;;;7.00;;
56541;SDS011;42438;53.174;6.730;2023-05-10T02:02:50;11.95;;;7.43;;
56541;SDS011;42438;53.174;6.730;2023-05-10T02:05:21;12.23;;;7.30;;
56541;SDS011;42438;53.174;6.730;2023-05-10T02:07:54;12.88;;;7.53;;
56541;SDS011;42438;53.174;6.730;2023-05-10T02:10:27;12.10;;;7.18;;
56541;SDS011;42438;53.174;6.730;2023-05-10T02:12:59;10.80;;;6.80;;
56541;SDS011;42438;53.174;6.730;2023-05-10T02:15:31;11.70;;;6.82;;
56541;SDS011;42438;53.174;6.730;2023-05-10T02:18:03;13.30;;;7.32;;
56541;SDS011;42438;53.174;6.730;2023-05-10T02:20:35;10.90;;;7.20;;
56541;SDS011;42438;53.174;6.730;2023-05-10T02:23:08;9.98;;;5.97;;
56541;SDS011;42438;53.174;6.730;2023-05-10T02:25:39;12.27;;;7.13;;
56541;SDS011;42438;53.174;6.730;2023-05-10T02:30:44;13.20;;;7.43;;
56541;SDS011;42438;53.174;6.730;2023-05-10T02:33:17;12.57;;;7.30;;
56541;SDS011;42438;53.174;6.730;2023-05-10T02:35:48;11.40;;;7.20;;
56541;SDS011;42438;53.174;6.730;2023-05-10T02:38:21;12.48;;;7.55;;
56541;SDS011;42438;53.174;6.730;2023-05-10T02:40:54;11.27;;;6.95;;
56541;SDS011;42438;53.174;6.730;2023-05-10T02:43:26;12.75;;;7.50;;
56541;SDS011;42438;53.174;6.730;2023-05-10T02:46:00;12.30;;;7.50;;
56541;SDS011;42438;53.174;6.730;2023-05-10T02:48:31;11.68;;;6.65;;
56541;SDS011;42438;53.174;6.730;2023-05-10T02:51:04;12.73;;;7.00;;
56541;SDS011;42438;53.174;6.730;2023-05-10T02:53:37;10.70;;;6.47;;
56541;SDS011;42438;53.174;6.730;2023-05-10T02:56:15;12.30;;;7.32;;
56541;SDS011;42438;53.174;6.730;2023-05-10T02:58:55;12.25;;;7.00;;
56541;SDS011;42438;53.174;6.730;2023-05-10T03:01:26;10.88;;;7.32;;
56541;SDS011;42438;53.174;6.730;2023-05-10T03:03:57;13.15;;;7.40;;
56541;SDS011;42438;53.174;6.730;2023-05-10T03:06:27;12.43;;;6.85;;
56541;SDS011;42438;53.174;6.730;2023-05-10T03:08:58;10.32;;;6.55;;
56541;SDS011;42438;53.174;6.730;2023-05-10T03:14:31;12.20;;;7.07;;
56541;SDS011;42438;53.174;6.730;2023-05-10T03:19:56;13.10;;;8.20;;
56541;SDS011;42438;53.174;6.730;2023-05-10T03:22:32;13.27;;;8.02;;
56541;SDS011;42438;53.174;6.730;2023-05-10T03:25:15;14.48;;;8.05;;
56541;SDS011;42438;53.174;6.730;2023-05-10T03:27:48;13.45;;;8.32;;
56541;SDS011;42438;53.174;6.730;2023-05-10T03:30:19;16.30;;;8.63;;
56541;SDS011;42438;53.174;6.730;2023-05-10T03:32:50;16.20;;;8.57;;
56541;SDS011;42438;53.174;6.730;2023-05-10T03:35:21;15.38;;;8.88;;
56541;SDS011;42438;53.174;6.730;2023-05-10T03:37:53;17.90;;;9.18;;
56541;SDS011;42438;53.174;6.730;2023-05-10T03:40:24;17.63;;;9.48;;
56541;SDS011;42438;53.174;6.730;2023-05-10T03:42:56;18.05;;;9.18;;
56541;SDS011;42438;53.174;6.730;2023-05-10T03:45:27;18.85;;;9.23;;
56541;SDS011;42438;53.174;6.730;2023-05-10T03:47:58;17.25;;;9.60;;
56541;SDS011;42438;53.174;6.730;2023-05-10T03:50:28;17.67;;;9.05;;
56541;SDS011;42438;53.174;6.730;2023-05-10T03:52:59;19.60;;;10.38;;
56541;SDS011;42438;53.174;6.730;2023-05-10T03:55:30;20.27;;;10.27;;
56541;SDS011;42438;53.174;6.730;2023-05-10T03:58:04;18.58;;;9.98;;
56541;SDS011;42438;53.174;6.730;2023-05-10T04:00:35;20.48;;;10.50;;
56541;SDS011;42438;53.174;6.730;2023-05-10T04:03:05;23.15;;;11.23;;
56541;SDS011;42438;53.174;6.730;2023-05-10T04:05:36;23.67;;;11.93;;
56541;SDS011;42438;53.174;6.730;2023-05-10T04:08:07;23.52;;;11.30;;
56541;SDS011;42438;53.174;6.730;2023-05-10T04:10:37;25.25;;;11.57;;
56541;SDS011;42438;53.174;6.730;2023-05-10T04:13:08;24.83;;;11.02;;
56541;SDS011;42438;53.174;6.730;2023-05-10T04:15:39;20.77;;;10.88;;
56541;SDS011;42438;53.174;6.730;2023-05-10T04:18:10;21.70;;;10.73;;
56541;SDS011;42438;53.174;6.730;2023-05-10T04:20:41;27.13;;;11.23;;
56541;SDS011;42438;53.174;6.730;2023-05-10T04:23:12;25.40;;;10.50;;
56541;SDS011;42438;53.174;6.730;2023-05-10T04:25:44;21.92;;;10.23;;
56541;SDS011;42438;53.174;6.730;2023-05-10T04:28:14;22.27;;;11.45;;
56541;SDS011;42438;53.174;6.730;2023-05-10T04:30:45;24.48;;;11.10;;
56541;SDS011;42438;53.174;6.730;2023-05-10T04:33:16;21.83;;;10.20;;
56541;SDS011;42438;53.174;6.730;2023-05-10T04:35:46;19.95;;;10.60;;
56541;SDS011;42438;53.174;6.730;2023-05-10T04:38:17;32.85;;;11.63;;
56541;SDS011;42438;53.174;6.730;2023-05-10T04:40:47;26.33;;;10.57;;
56541;SDS011;42438;53.174;6.730;2023-05-10T04:43:18;21.85;;;10.20;;
56541;SDS011;42438;53.174;6.730;2023-05-10T04:45:49;19.80;;;10.15;;
56541;SDS011;42438;53.174;6.730;2023-05-10T04:48:20;21.58;;;9.18;;
56541;SDS011;42438;53.174;6.730;2023-05-10T04:50:50;19.77;;;9.93;;
56541;SDS011;42438;53.174;6.730;2023-05-10T04:53:21;16.45;;;8.85;;
56541;SDS011;42438;53.174;6.730;2023-05-10T04:55:52;19.15;;;8.77;;
56541;SDS011;42438;53.174;6.730;2023-05-10T04:58:23;17.58;;;8.57;;
56541;SDS011;42438;53.174;6.730;2023-05-10T05:00:53;17.92;;;9.05;;
56541;SDS011;42438;53.174;6.730;2023-05-10T05:03:24;13.75;;;8.20;;
56541;SDS011;42438;53.174;6.730;2023-05-10T05:05:55;15.77;;;8.00;;
56541;SDS011;42438;53.174;6.730;2023-05-10T05:08:25;13.65;;;7.72;;
56541;SDS011;42438;53.174;6.730;2023-05-10T05:10:56;13.90;;;7.10;;
56541;SDS011;42438;53.174;6.730;2023-05-10T05:13:26;9.32;;;5.05;;
56541;SDS011;42438;53.174;6.730;2023-05-10T05:15:59;8.32;;;5.00;;
56541;SDS011;42438;53.174;6.730;2023-05-10T05:18:31;5.18;;;3.28;;
56541;SDS011;42438;53.174;6.730;2023-05-10T05:21:01;6.05;;;3.20;;
56541;SDS011;42438;53.174;6.730;2023-05-10T05:23:32;5.75;;;3.03;;
56541;SDS011;42438;53.174;6.730;2023-05-10T05:26:03;4.90;;;2.65;;
56541;SDS011;42438;53.174;6.730;2023-05-10T05:28:34;5.07;;;2.70;;
56541;SDS011;42438;53.174;6.730;2023-05-10T05:31:07;5.40;;;2.92;;
56541;SDS011;42438;53.174;6.730;2023-05-10T05:33:37;5.65;;;3.15;;
56541;SDS011;42438;53.174;6.730;2023-05-10T05:36:08;7.03;;;3.33;;
56541;SDS011;42438;53.174;6.730;2023-05-10T05:38:39;7.13;;;3.33;;
56541;SDS011;42438;53.174;6.730;2023-05-10T05:41:10;5.68;;;3.35;;
56541;SDS011;42438;53.174;6.730;2023-05-10T05:43:40;6.60;;;3.63;;
56541;SDS011;42438;53.174;6.730;2023-05-10T05:46:11;5.90;;;3.60;;
56541;SDS011;42438;53.174;6.730;2023-05-10T05:48:41;5.35;;;3.17;;
56541;SDS011;42438;53.174;6.730;2023-05-10T05:51:12;4.82;;;3.15;;
56541;SDS011;42438;53.174;6.730;2023-05-10T05:53:43;5.68;;;3.30;;
56541;SDS011;42438;53.174;6.730;2023-05-10T05:56:13;5.18;;;3.38;;
56541;SDS011;42438;53.174;6.730;2023-05-10T05:58:44;5.72;;;3.58;;
56541;SDS011;42438;53.174;6.730;2023-05-10T06:01:15;5.03;;;3.00;;
56541;SDS011;42438;53.174;6.730;2023-05-10T06:03:45;4.95;;;3.20;;
56541;SDS011;42438;53.174;6.730;2023-05-10T06:06:16;6.60;;;3.47;;
56541;SDS011;42438;53.174;6.730;2023-05-10T06:08:47;5.65;;;3.03;;
56541;SDS011;42438;53.174;6.730;2023-05-10T06:11:17;4.53;;;2.83;;
56541;SDS011;42438;53.174;6.730;2023-05-10T06:13:48;5.80;;;3.33;;
56541;SDS011;42438;53.174;6.730;2023-05-10T06:16:19;5.53;;;3.05;;
56541;SDS011;42438;53.174;6.730;2023-05-10T06:18:49;5.60;;;3.20;;
56541;SDS011;42438;53.174;6.730;2023-05-10T06:21:21;5.30;;;3.33;;
56541;SDS011;42438;53.174;6.730;2023-05-10T06:23:51;5.20;;;3.15;;
56541;SDS011;42438;53.174;6.730;2023-05-10T06:26:22;6.97;;;3.58;;
56541;SDS011;42438;53.174;6.730;2023-05-10T06:28:53;6.55;;;3.60;;
56541;SDS011;42438;53.174;6.730;2023-05-10T06:31:23;6.78;;;3.45;;
56541;SDS011;42438;53.174;6.730;2023-05-10T06:33:54;6.22;;;3.65;;
56541;SDS011;42438;53.174;6.730;2023-05-10T06:36:24;7.93;;;3.38;;
56541;SDS011;42438;53.174;6.730;2023-05-10T06:38:56;9.20;;;3.72;;
56541;SDS011;42438;53.174;6.730;2023-05-10T06:41:26;5.47;;;3.08;;
56541;SDS011;42438;53.174;6.730;2023-05-10T06:43:57;5.18;;;2.90;;
56541;SDS011;42438;53.174;6.730;2023-05-10T06:46:28;4.57;;;2.42;;
56541;SDS011;42438;53.174;6.730;2023-05-10T06:48:58;3.75;;;2.20;;
56541;SDS011;42438;53.174;6.730;2023-05-10T06:51:29;3.70;;;2.03;;
56541;SDS011;42438;53.174;6.730;2023-05-10T06:54:00;3.78;;;1.88;;
56541;SDS011;42438;53.174;6.730;2023-05-10T06:56:33;3.33;;;1.80;;
56541;SDS011;42438;53.174;6.730;2023-05-10T06:59:03;7.25;;;2.53;;
56541;SDS011;42438;53.174;6.730;2023-05-10T07:01:34;5.28;;;2.78;;
56541;SDS011;42438;53.174;6.730;2023-05-10T07:04:05;5.03;;;3.08;;
56541;SDS011;42438;53.174;6.730;2023-05-10T07:06:37;6.22;;;3.35;;
56541;SDS011;42438;53.174;6.730;2023-05-10T07:09:07;5.90;;;3.35;;
56541;SDS011;42438;53.174;6.730;2023-05-10T07:11:38;7.13;;;3.90;;
56541;SDS011;42438;53.174;6.730;2023-05-10T07:14:09;6.63;;;4.10;;
56541;SDS011;42438;53.174;6.730;2023-05-10T07:16:39;7.43;;;4.28;;
56541;SDS011;42438;53.174;6.730;2023-05-10T07:19:10;8.18;;;4.50;;
56541;SDS011;42438;53.174;6.730;2023-05-10T07:21:41;6.63;;;3.70;;
56541;SDS011;42438;53.174;6.730;2023-05-10T07:24:13;6.97;;;3.60;;
56541;SDS011;42438;53.174;6.730;2023-05-10T07:26:43;5.85;;;2.78;;
56541;SDS011;42438;53.174;6.730;2023-05-10T07:29:14;5.40;;;2.90;;
56541;SDS011;42438;53.174;6.730;2023-05-10T07:31:45;5.00;;;2.85;;
56541;SDS011;42438;53.174;6.730;2023-05-10T07:34:15;6.95;;;4.15;;
56541;SDS011;42438;53.174;6.730;2023-05-10T07:36:46;7.63;;;3.70;;
56541;SDS011;42438;53.174;6.730;2023-05-10T07:39:17;6.95;;;4.20;;
56541;SDS011;42438;53.174;6.730;2023-05-10T07:41:47;6.78;;;4.20;;
56541;SDS011;42438;53.174;6.730;2023-05-10T07:44:18;6.13;;;3.67;;
56541;SDS011;42438;53.174;6.730;2023-05-10T07:46:50;6.22;;;3.58;;
56541;SDS011;42438;53.174;6.730;2023-05-10T07:49:20;6.38;;;3.95;;
56541;SDS011;42438;53.174;6.730;2023-05-10T07:51:51;5.50;;;3.40;;
56541;SDS011;42438;53.174;6.730;2023-05-10T07:54:22;6.43;;;3.97;;
56541;SDS011;42438;53.174;6.730;2023-05-10T07:56:53;6.13;;;3.50;;
56541;SDS011;42438;53.174;6.730;2023-05-10T07:59:23;6.60;;;3.80;;
56541;SDS011;42438;53.174;6.730;2023-05-10T08:01:54;5.60;;;3.72;;
56541;SDS011;42438;53.174;6.730;2023-05-10T08:04:24;5.70;;;3.60;;
56541;SDS011;42438;53.174;6.730;2023-05-10T08:06:55;4.88;;;3.20;;
56541;SDS011;42438;53.174;6.730;2023-05-10T08:09:26;4.70;;;3.35;;
56541;SDS011;42438;53.174;6.730;2023-05-10T08:11:56;4.88;;;3.10;;
56541;SDS011;42438;53.174;6.730;2023-05-10T08:14:29;4.13;;;3.10;;
56541;SDS011;42438;53.174;6.730;2023-05-10T08:17:00;4.57;;;3.28;;
56541;SDS011;42438;53.174;6.730;2023-05-10T08:19:30;3.65;;;2.63;;
56541;SDS011;42438;53.174;6.730;2023-05-10T08:22:02;4.60;;;2.70;;
56541;SDS011;42438;53.174;6.730;2023-05-10T08:24:32;4.03;;;2.40;;
56541;SDS011;42438;53.174;6.730;2023-05-10T08:27:08;4.30;;;2.78;;
56541;SDS011;42438;53.174;6.730;2023-05-10T08:29:39;4.38;;;2.92;;
56541;SDS011;42438;53.174;6.730;2023-05-10T08:32:09;6.55;;;3.10;;
56541;SDS011;42438;53.174;6.730;2023-05-10T08:34:40;5.78;;;3.70;;
56541;SDS011;42438;53.174;6.730;2023-05-10T08:37:11;7.25;;;4.32;;
56541;SDS011;42438;53.174;6.730;2023-05-10T08:39:43;6.43;;;4.07;;
56541;SDS011;42438;53.174;6.730;2023-05-10T08:42:13;7.75;;;4.38;;
56541;SDS011;42438;53.174;6.730;2023-05-10T08:44:50;6.85;;;4.28;;
56541;SDS011;42438;53.174;6.730;2023-05-10T08:47:22;7.72;;;4.80;;
56541;SDS011;42438;53.174;6.730;2023-05-10T08:49:53;7.85;;;4.38;;
56541;SDS011;42438;53.174;6.730;2023-05-10T08:52:24;7.45;;;4.25;;
56541;SDS011;42438;53.174;6.730;2023-05-10T08:54:58;7.88;;;5.00;;
56541;SDS011;42438;53.174;6.730;2023-05-10T08:57:28;7.90;;;4.78;;
56541;SDS011;42438;53.174;6.730;2023-05-10T09:00:00;7.93;;;4.53;;
56541;SDS011;42438;53.174;6.730;2023-05-10T09:02:31;8.55;;;4.90;;
56541;SDS011;42438;53.174;6.730;2023-05-10T09:05:02;7.63;;;4.97;;
56541;SDS011;42438;53.174;6.730;2023-05-10T09:07:34;7.57;;;4.72;;
56541;SDS011;42438;53.174;6.730;2023-05-10T09:10:05;8.90;;;4.93;;
56541;SDS011;42438;53.174;6.730;2023-05-10T09:12:37;7.57;;;5.03;;
56541;SDS011;42438;53.174;6.730;2023-05-10T09:15:08;7.03;;;4.30;;
56541;SDS011;42438;53.174;6.730;2023-05-10T09:17:39;6.75;;;3.95;;
56541;SDS011;42438;53.174;6.730;2023-05-10T09:20:10;7.82;;;4.72;;
56541;SDS011;42438;53.174;6.730;2023-05-10T09:22:41;6.80;;;4.65;;
56541;SDS011;42438;53.174;6.730;2023-05-10T09:25:13;6.40;;;4.22;;
56541;SDS011;42438;53.174;6.730;2023-05-10T09:27:45;6.95;;;4.47;;
56541;SDS011;42438;53.174;6.730;2023-05-10T09:30:18;6.57;;;4.50;;
56541;SDS011;42438;53.174;6.730;2023-05-10T09:32:53;6.28;;;3.53;;
56541;SDS011;42438;53.174;6.730;2023-05-10T09:35:25;6.32;;;3.75;;
56541;SDS011;42438;53.174;6.730;2023-05-10T09:37:59;6.20;;;3.92;;
56541;SDS011;42438;53.174;6.730;2023-05-10T09:40:32;5.75;;;3.50;;
56541;SDS011;42438;53.174;6.730;2023-05-10T09:43:06;5.57;;;3.78;;
56541;SDS011;42438;53.174;6.730;2023-05-10T09:45:37;7.10;;;4.00;;
56541;SDS011;42438;53.174;6.730;2023-05-10T09:48:09;7.13;;;4.13;;
56541;SDS011;42438;53.174;6.730;2023-05-10T09:50:39;7.55;;;4.28;;
56541;SDS011;42438;53.174;6.730;2023-05-10T09:53:12;6.88;;;4.28;;
56541;SDS011;42438;53.174;6.730;2023-05-10T09:55:46;7.63;;;4.43;;
56541;SDS011;42438;53.174;6.730;2023-05-10T09:58:16;7.95;;;4.13;;
56541;SDS011;42438;53.174;6.730;2023-05-10T10:00:47;9.00;;;4.70;;
56541;SDS011;42438;53.174;6.730;2023-05-10T10:03:21;8.35;;;4.43;;
56541;SDS011;42438;53.174;6.730;2023-05-10T10:05:52;8.30;;;4.50;;
56541;SDS011;42438;53.174;6.730;2023-05-10T10:08:23;7.10;;;4.18;;
56541;SDS011;42438;53.174;6.730;2023-05-10T10:10:55;5.93;;;3.03;;
56541;SDS011;42438;53.174;6.730;2023-05-10T10:13:25;6.00;;;4.10;;
56541;SDS011;42438;53.174;6.730;2023-05-10T10:15:56;6.57;;;3.58;;
56541;SDS011;42438;53.174;6.730;2023-05-10T10:18:27;7.45;;;4.00;;
56541;SDS011;42438;53.174;6.730;2023-05-10T10:20:58;7.22;;;4.00;;
56541;SDS011;42438;53.174;6.730;2023-05-10T10:23:29;6.88;;;4.15;;
56541;SDS011;42438;53.174;6.730;2023-05-10T10:26:00;6.85;;;3.50;;
56541;SDS011;42438;53.174;6.730;2023-05-10T10:31:34;6.85;;;3.45;;
56541;SDS011;42438;53.174;6.730;2023-05-10T10:34:07;6.88;;;3.67;;
56541;SDS011;42438;53.174;6.730;2023-05-10T10:36:40;8.68;;;4.10;;
56541;SDS011;42438;53.174;6.730;2023-05-10T10:39:13;7.60;;;3.80;;
56541;SDS011;42438;53.174;6.730;2023-05-10T10:41:55;6.13;;;3.53;;
56541;SDS011;42438;53.174;6.730;2023-05-10T10:52:24;5.88;;;3.63;;
56541;SDS011;42438;53.174;6.730;2023-05-10T10:55:04;7.72;;;4.10;;
56541;SDS011;42438;53.174;6.730;2023-05-10T10:57:56;6.47;;;4.00;;
56541;SDS011;42438;53.174;6.730;2023-05-10T11:00:31;6.88;;;4.18;;
56541;SDS011;42438;53.174;6.730;2023-05-10T11:03:08;6.90;;;4.30;;
56541;SDS011;42438;53.174;6.730;2023-05-10T11:05:42;4.57;;;2.50;;
56541;SDS011;42438;53.174;6.730;2023-05-10T11:08:21;5.60;;;3.10;;
56541;SDS011;42438;53.174;6.730;2023-05-10T11:13:33;5.30;;;2.90;;
56541;SDS011;42438;53.174;6.730;2023-05-10T11:16:23;4.55;;;2.60;;
56541;SDS011;42438;53.174;6.730;2023-05-10T11:18:59;5.10;;;2.65;;
56541;SDS011;42438;53.174;6.730;2023-05-10T11:21:31;5.78;;;2.83;;
56541;SDS011;42438;53.174;6.730;2023-05-10T11:24:08;5.10;;;3.13;;
56541;SDS011;42438;53.174;6.730;2023-05-10T11:26:43;6.63;;;3.80;;
56541;SDS011;42438;53.174;6.730;2023-05-10T11:29:15;6.15;;;3.65;;
56541;SDS011;42438;53.174;6.730;2023-05-10T11:31:46;7.68;;;4.55;;
56541;SDS011;42438;53.174;6.730;2023-05-10T11:34:25;8.00;;;4.75;;
56541;SDS011;42438;53.174;6.730;2023-05-10T11:37:00;7.50;;;5.00;;
56541;SDS011;42438;53.174;6.730;2023-05-10T11:39:31;7.30;;;5.18;;
56541;SDS011;42438;53.174;6.730;2023-05-10T11:42:03;9.05;;;5.22;;
56541;SDS011;42438;53.174;6.730;2023-05-10T11:44:34;8.68;;;4.80;;
56541;SDS011;42438;53.174;6.730;2023-05-10T11:47:05;9.25;;;4.95;;
56541;SDS011;42438;53.174;6.730;2023-05-10T11:49:35;6.85;;;4.65;;
56541;SDS011;42438;53.174;6.730;2023-05-10T11:52:06;8.18;;;4.85;;
56541;SDS011;42438;53.174;6.730;2023-05-10T11:54:37;8.57;;;4.97;;
56541;SDS011;42438;53.174;6.730;2023-05-10T11:57:26;9.52;;;5.43;;
56541;SDS011;42438;53.174;6.730;2023-05-10T11:59:57;8.27;;;4.80;;
56541;SDS011;42438;53.174;6.730;2023-05-10T12:02:28;8.93;;;5.53;;
56541;SDS011;42438;53.174;6.730;2023-05-10T12:04:59;7.82;;;4.97;;
56541;SDS011;42438;53.174;6.730;2023-05-10T12:07:30;9.68;;;5.30;;
56541;SDS011;42438;53.174;6.730;2023-05-10T12:10:05;8.50;;;5.03;;
56541;SDS011;42438;53.174;6.730;2023-05-10T12:12:40;11.95;;;6.47;;
56541;SDS011;42438;53.174;6.730;2023-05-10T12:17:53;9.85;;;5.53;;
56541;SDS011;42438;53.174;6.730;2023-05-10T12:20:26;10.55;;;5.70;;
56541;SDS011;42438;53.174;6.730;2023-05-10T12:22:58;9.73;;;5.95;;
56541;SDS011;42438;53.174;6.730;2023-05-10T12:25:32;9.98;;;5.55;;
56541;SDS011;42438;53.174;6.730;2023-05-10T12:28:05;11.25;;;6.55;;
56541;SDS011;42438;53.174;6.730;2023-05-10T12:30:39;11.30;;;6.72;;
56541;SDS011;42438;53.174;6.730;2023-05-10T12:33:10;9.73;;;6.00;;
56541;SDS011;42438;53.174;6.730;2023-05-10T12:38:32;8.23;;;4.18;;
56541;SDS011;42438;53.174;6.730;2023-05-10T12:41:08;8.93;;;5.18;;
56541;SDS011;42438;53.174;6.730;2023-05-10T12:43:40;11.55;;;6.18;;
56541;SDS011;42438;53.174;6.730;2023-05-10T12:46:12;10.73;;;5.97;;
56541;SDS011;42438;53.174;6.730;2023-05-10T12:48:44;11.20;;;6.07;;
56541;SDS011;42438;53.174;6.730;2023-05-10T12:51:24;14.80;;;6.38;;
56541;SDS011;42438;53.174;6.730;2023-05-10T12:53:55;10.63;;;6.15;;
56541;SDS011;42438;53.174;6.730;2023-05-10T12:56:25;10.25;;;5.65;;
56541;SDS011;42438;53.174;6.730;2023-05-10T12:58:56;10.45;;;5.70;;
56541;SDS011;42438;53.174;6.730;2023-05-10T13:01:27;8.52;;;5.80;;
56541;SDS011;42438;53.174;6.730;2023-05-10T13:03:57;10.38;;;5.97;;
56541;SDS011;42438;53.174;6.730;2023-05-10T13:06:30;11.02;;;5.82;;
56541;SDS011;42438;53.174;6.730;2023-05-10T13:09:01;11.93;;;6.68;;
56541;SDS011;42438;53.174;6.730;2023-05-10T13:11:32;12.98;;;6.20;;
56541;SDS011;42438;53.174;6.730;2023-05-10T13:14:03;11.10;;;5.88;;
56541;SDS011;42438;53.174;6.730;2023-05-10T13:16:33;10.23;;;6.38;;
56541;SDS011;42438;53.174;6.730;2023-05-10T13:19:04;12.75;;;6.18;;
56541;SDS011;42438;53.174;6.730;2023-05-10T13:21:35;12.63;;;6.72;;
56541;SDS011;42438;53.174;6.730;2023-05-10T13:24:06;14.25;;;6.78;;
56541;SDS011;42438;53.174;6.730;2023-05-10T13:26:37;10.98;;;6.18;;
56541;SDS011;42438;53.174;6.730;2023-05-10T13:29:07;11.02;;;6.00;;
56541;SDS011;42438;53.174;6.730;2023-05-10T13:31:38;10.95;;;5.53;;
56541;SDS011;42438;53.174;6.730;2023-05-10T13:34:09;11.27;;;5.90;;
56541;SDS011;42438;53.174;6.730;2023-05-10T13:36:40;12.15;;;5.45;;
56541;SDS011;42438;53.174;6.730;2023-05-10T13:39:11;8.88;;;5.18;;
56541;SDS011;42438;53.174;6.730;2023-05-10T13:41:42;12.48;;;5.85;;
56541;SDS011;42438;53.174;6.730;2023-05-10T13:44:13;9.75;;;5.90;;
56541;SDS011;42438;53.174;6.730;2023-05-10T13:46:44;11.45;;;6.65;;
56541;SDS011;42438;53.174;6.730;2023-05-10T13:49:15;12.93;;;6.90;;
56541;SDS011;42438;53.174;6.730;2023-05-10T13:51:45;12.13;;;6.75;;
56541;SDS011;42438;53.174;6.730;2023-05-10T13:54:16;11.00;;;6.43;;
56541;SDS011;42438;53.174;6.730;2023-05-10T13:56:49;11.32;;;6.78;;
56541;SDS011;42438;53.174;6.730;2023-05-10T13:59:20;10.10;;;5.68;;
56541;SDS011;42438;53.174;6.730;2023-05-10T14:01:51;10.18;;;6.68;;
56541;SDS011;42438;53.174;6.730;2023-05-10T14:04:21;9.90;;;6.15;;
56541;SDS011;42438;53.174;6.730;2023-05-10T14:06:52;13.10;;;5.63;;
56541;SDS011;42438;53.174;6.730;2023-05-10T14:09:22;11.63;;;6.68;;
56541;SDS011;42438;53.174;6.730;2023-05-10T14:11:53;10.35;;;6.40;;
56541;SDS011;42438;53.174;6.730;2023-05-10T14:14:24;12.23;;;6.43;;
56541;SDS011;42438;53.174;6.730;2023-05-10T14:16:55;11.30;;;6.30;;
56541;SDS011;42438;53.174;6.730;2023-05-10T14:19:27;11.52;;;6.90;;
56541;SDS011;42438;53.174;6.730;2023-05-10T14:21:57;10.88;;;6.72;;
56541;SDS011;42438;53.174;6.730;2023-05-10T14:24:28;12.90;;;6.43;;
56541;SDS011;42438;53.174;6.730;2023-05-10T14:26:59;11.73;;;6.22;;
56541;SDS011;42438;53.174;6.730;2023-05-10T14:29:31;11.32;;;6.93;;
56541;SDS011;42438;53.174;6.730;2023-05-10T14:32:02;13.38;;;7.55;;
56541;SDS011;42438;53.174;6.730;2023-05-10T14:34:32;13.38;;;7.13;;
56541;SDS011;42438;53.174;6.730;2023-05-10T14:37:03;11.18;;;6.22;;
56541;SDS011;42438;53.174;6.730;2023-05-10T14:39:34;13.30;;;6.72;;
56541;SDS011;42438;53.174;6.730;2023-05-10T14:42:05;12.55;;;6.82;;
56541;SDS011;42438;53.174;6.730;2023-05-10T14:44:35;11.73;;;5.97;;
56541;SDS011;42438;53.174;6.730;2023-05-10T14:47:06;11.48;;;6.40;;
56541;SDS011;42438;53.174;6.730;2023-05-10T14:49:36;11.77;;;6.70;;
56541;SDS011;42438;53.174;6.730;2023-05-10T14:52:07;13.40;;;7.30;;
56541;SDS011;42438;53.174;6.730;2023-05-10T14:54:38;11.82;;;6.85;;
56541;SDS011;42438;53.174;6.730;2023-05-10T14:57:09;12.40;;;6.55;;
56541;SDS011;42438;53.174;6.730;2023-05-10T14:59:39;11.32;;;6.43;;
56541;SDS011;42438;53.174;6.730;2023-05-10T15:02:10;12.25;;;6.57;;
56541;SDS011;42438;53.174;6.730;2023-05-10T15:04:41;10.27;;;6.32;;
56541;SDS011;42438;53.174;6.730;2023-05-10T15:07:11;11.73;;;6.63;;
56541;SDS011;42438;53.174;6.730;2023-05-10T15:09:44;10.45;;;6.03;;
56541;SDS011;42438;53.174;6.730;2023-05-10T15:12:15;12.63;;;6.05;;
56541;SDS011;42438;53.174;6.730;2023-05-10T15:14:46;11.48;;;6.35;;
56541;SDS011;42438;53.174;6.730;2023-05-10T15:17:16;10.73;;;6.18;;
56541;SDS011;42438;53.174;6.730;2023-05-10T15:19:47;10.32;;;6.35;;
56541;SDS011;42438;53.174;6.730;2023-05-10T15:22:19;11.82;;;6.43;;
56541;SDS011;42438;53.174;6.730;2023-05-10T15:24:49;13.32;;;6.45;;
56541;SDS011;42438;53.174;6.730;2023-05-10T15:27:20;10.35;;;5.93;;
56541;SDS011;42438;53.174;6.730;2023-05-10T15:29:51;12.60;;;6.70;;
56541;SDS011;42438;53.174;6.730;2023-05-10T15:32:22;11.13;;;6.60;;
56541;SDS011;42438;53.174;6.730;2023-05-10T15:34:52;9.68;;;5.82;;
56541;SDS011;42438;53.174;6.730;2023-05-10T15:37:23;13.20;;;7.95;;
56541;SDS011;42438;53.174;6.730;2023-05-10T15:39:54;13.15;;;7.03;;
56541;SDS011;42438;53.174;6.730;2023-05-10T15:42:32;12.32;;;7.32;;
56541;SDS011;42438;53.174;6.730;2023-05-10T15:45:03;10.90;;;6.40;;
56541;SDS011;42438;53.174;6.730;2023-05-10T15:47:34;15.38;;;7.82;;
56541;SDS011;42438;53.174;6.730;2023-05-10T15:50:05;12.43;;;6.53;;